createdAt,value
2019-04-16T00:01:45.317Z,14.67
2019-04-16T00:04:27.109Z,18.80
2019-04-16T00:07:21.284Z,15.37
2019-04-16T00:09:59.873Z,16.30
2019-04-16T00:12:48.637Z,18.00
2019-04-16T00:15:16.686Z,15.43
2019-04-16T00:17:47.304Z,15.93
2019-04-16T00:20:14.469Z,18.30
2019-04-16T00:22:49.597Z,19.60
2019-04-16T00:25:17.772Z,17.20
2019-04-16T00:27:45.715Z,17.97
2019-04-16T00:30:15.518Z,16.30
2019-04-16T00:32:43.660Z,16.37
2019-04-16T00:35:15.438Z,17.10
2019-04-16T00:37:41.475Z,21.17
2019-04-16T00:40:09.578Z,18.07
2019-04-16T00:42:38.046Z,16.73
2019-04-16T00:45:09.576Z,16.77
2019-04-16T00:47:37.619Z,17.20
2019-04-16T00:50:05.769Z,15.80
2019-04-16T00:52:36.644Z,20.10
2019-04-16T00:55:03.754Z,20.83
2019-04-16T00:57:31.646Z,16.47
2019-04-16T00:59:59.831Z,17.57
2019-04-16T01:02:27.860Z,20.67
2019-04-16T01:04:55.866Z,17.77
2019-04-16T01:07:25.053Z,15.90
2019-04-16T01:09:53.011Z,17.90
2019-04-16T01:12:21.480Z,19.07
2019-04-16T01:14:49.656Z,16.27
2019-04-16T01:17:18.471Z,16.73
2019-04-16T01:19:46.372Z,20.70
2019-04-16T01:22:16.015Z,15.80
2019-04-16T01:24:44.228Z,19.77
2019-04-16T01:27:12.146Z,16.97
2019-04-16T01:29:40.160Z,17.57
2019-04-16T01:32:36.638Z,18.03
2019-04-16T01:35:27.246Z,17.10
2019-04-16T01:38:13.028Z,18.60
2019-04-16T01:41:00.483Z,20.50
2019-04-16T01:43:28.632Z,17.73
2019-04-16T01:46:00.781Z,16.50
2019-04-16T01:48:26.620Z,18.33
2019-04-16T01:50:54.807Z,18.80
2019-04-16T01:53:24.214Z,17.83
2019-04-16T01:55:56.741Z,17.60
2019-04-16T01:58:22.399Z,18.00
2019-04-16T02:00:50.590Z,20.00
2019-04-16T02:03:18.659Z,19.07
2019-04-16T02:05:46.739Z,20.23
2019-04-16T02:08:14.718Z,19.00
2019-04-16T02:10:42.893Z,18.60
2019-04-16T02:13:14.578Z,17.20
2019-04-16T02:15:40.774Z,19.27
2019-04-16T02:18:08.765Z,18.77
2019-04-16T02:20:39.245Z,18.23
2019-04-16T02:23:06.352Z,20.60
2019-04-16T02:25:34.267Z,22.27
2019-04-16T02:28:02.581Z,20.97
2019-04-16T02:30:38.127Z,20.30
2019-04-16T02:33:04.474Z,20.00
2019-04-16T02:35:32.704Z,20.60
2019-04-16T02:38:00.742Z,19.53
2019-04-16T02:40:28.940Z,21.07
2019-04-16T02:43:04.214Z,17.80
2019-04-16T02:45:27.071Z,28.33
2019-04-16T02:47:55.383Z,23.03
2019-04-16T02:50:33.833Z,20.70
2019-04-16T02:53:09.045Z,19.97
2019-04-16T02:56:05.868Z,18.97
2019-04-16T02:58:44.165Z,19.63
2019-04-16T03:01:34.315Z,19.53
2019-04-16T03:04:08.066Z,21.23
2019-04-16T03:06:36.122Z,19.87
2019-04-16T03:09:09.128Z,20.37
2019-04-16T03:11:36.458Z,20.33
2019-04-16T03:14:04.639Z,18.97
2019-04-16T03:16:57.591Z,19.33
2019-04-16T03:19:30.902Z,21.70
2019-04-16T03:22:02.164Z,20.33
2019-04-16T03:24:29.483Z,20.83
2019-04-16T03:26:57.806Z,19.30
2019-04-16T03:29:27.453Z,18.00
2019-04-16T03:31:58.331Z,23.33
2019-04-16T03:34:25.844Z,22.03
2019-04-16T03:36:53.819Z,21.33
2019-04-16T03:39:22.111Z,20.40
2019-04-16T03:41:50.346Z,19.97
2019-04-16T03:44:18.383Z,21.83
2019-04-16T03:46:47.677Z,25.13
2019-04-16T03:49:16.235Z,19.77
2019-04-16T03:51:44.239Z,20.73
2019-04-16T03:54:12.281Z,21.20
2019-04-16T03:56:40.363Z,20.33
2019-04-16T03:59:11.848Z,19.53
2019-04-16T04:01:39.149Z,19.77
2019-04-16T04:04:07.239Z,22.40
2019-04-16T04:06:36.554Z,21.93
2019-04-16T04:09:06.383Z,26.93
2019-04-16T04:11:34.941Z,20.67
2019-04-16T04:14:03.265Z,21.70
2019-04-16T04:16:33.425Z,22.13
2019-04-16T04:19:01.540Z,20.60
2019-04-16T04:21:29.597Z,20.47
2019-04-16T04:24:00.703Z,18.67
2019-04-16T04:26:27.647Z,21.60
2019-04-16T04:28:55.707Z,19.17
2019-04-16T04:31:23.811Z,20.87
2019-04-16T04:33:51.977Z,21.10
2019-04-16T04:36:22.977Z,20.80
2019-04-16T04:38:49.987Z,20.77
2019-04-16T04:41:20.170Z,21.87
2019-04-16T04:43:48.053Z,23.73
2019-04-16T04:46:16.131Z,23.33
2019-04-16T04:48:44.407Z,21.30
2019-04-16T04:51:12.811Z,20.87
2019-04-16T04:53:41.440Z,21.17
2019-04-16T04:56:09.641Z,28.10
2019-04-16T04:58:37.713Z,23.03
2019-04-16T05:01:06.195Z,22.40
2019-04-16T05:04:02.003Z,21.30
2019-04-16T05:06:32.094Z,20.50
2019-04-16T05:09:00.408Z,21.87
2019-04-16T05:11:29.682Z,22.73
2019-04-16T05:13:57.936Z,20.87
2019-04-16T05:16:26.066Z,22.00
2019-04-16T05:18:54.111Z,22.00
2019-04-16T05:21:22.215Z,21.57
2019-04-16T05:23:50.193Z,21.47
2019-04-16T05:26:18.186Z,21.53
2019-04-16T05:28:46.216Z,21.43
2019-04-16T05:31:14.384Z,28.00
2019-04-16T05:33:42.706Z,23.07
2019-04-16T05:36:14.219Z,24.23
2019-04-16T05:38:41.084Z,21.23
2019-04-16T05:41:13.502Z,21.27
2019-04-16T05:43:39.254Z,21.10
2019-04-16T05:46:08.858Z,22.77
2019-04-16T05:48:46.980Z,21.20
2019-04-16T05:51:28.519Z,19.80
2019-04-16T05:53:59.802Z,19.83
2019-04-16T05:56:36.542Z,19.77
2019-04-16T05:59:04.631Z,20.63
2019-04-16T06:01:45.465Z,19.67
2019-04-16T06:04:12.926Z,19.77
2019-04-16T06:06:41.267Z,19.27
2019-04-16T06:09:12.260Z,19.50
2019-04-16T06:11:39.833Z,20.03
2019-04-16T06:14:39.174Z,18.73
2019-04-16T06:17:25.887Z,18.37
2019-04-16T06:20:20.758Z,18.77
2019-04-16T06:23:08.801Z,19.77
2019-04-16T06:25:47.846Z,19.60
2019-04-16T06:28:43.774Z,19.33
2019-04-16T06:31:31.160Z,20.97
2019-04-16T06:34:17.042Z,19.00
2019-04-16T06:37:02.520Z,21.37
2019-04-16T06:39:52.441Z,19.63
2019-04-16T06:42:33.738Z,21.40
2019-04-16T06:45:06.146Z,21.17
2019-04-16T06:47:59.562Z,19.80
2019-04-16T06:50:49.980Z,18.40
2019-04-16T06:53:40.454Z,18.27
2019-04-16T06:56:21.100Z,21.27
2019-04-16T06:58:57.163Z,19.63
2019-04-16T07:01:56.514Z,18.20
2019-04-16T07:04:38.222Z,18.50
2019-04-16T07:07:15.487Z,18.77
2019-04-16T07:09:57.640Z,20.27
2019-04-16T07:12:29.632Z,21.27
2019-04-16T07:14:57.849Z,19.33
2019-04-16T07:17:29.430Z,18.87
2019-04-16T07:19:57.115Z,19.90
2019-04-16T07:22:25.373Z,18.30
2019-04-16T07:24:57.742Z,17.30
2019-04-16T07:27:29.069Z,18.37
2019-04-16T07:30:09.055Z,20.73
2019-04-16T07:32:55.451Z,17.97
2019-04-16T07:35:35.933Z,20.50
2019-04-16T07:38:35.147Z,20.90
2019-04-16T07:41:17.123Z,18.97
2019-04-16T07:44:10.245Z,18.90
2019-04-16T07:47:06.129Z,17.37
2019-04-16T07:49:55.920Z,20.67
2019-04-16T07:52:48.776Z,20.30
2019-04-16T07:55:36.587Z,18.80
2019-04-16T07:58:04.832Z,20.13
2019-04-16T08:00:33.031Z,18.57
2019-04-16T08:03:01.111Z,19.87
2019-04-16T08:05:29.443Z,20.93
2019-04-16T08:07:57.920Z,21.20
2019-04-16T08:10:26.228Z,19.83
2019-04-16T08:13:06.395Z,17.30
2019-04-16T08:15:34.368Z,17.17
2019-04-16T08:18:02.355Z,19.03
2019-04-16T08:20:31.043Z,18.67
2019-04-16T08:23:02.023Z,19.00
2019-04-16T08:25:34.058Z,18.10
2019-04-16T08:28:01.290Z,16.20
2019-04-16T08:30:34.581Z,15.80
2019-04-16T08:33:00.208Z,18.63
2019-04-16T08:35:28.588Z,17.33
2019-04-16T08:37:58.554Z,17.17
2019-04-16T08:40:26.766Z,16.77
2019-04-16T08:42:57.249Z,17.87
2019-04-16T08:45:25.041Z,17.70
2019-04-16T08:47:52.944Z,15.50
2019-04-16T08:50:25.812Z,18.03
2019-04-16T08:52:50.704Z,17.10
2019-04-16T08:55:20.533Z,18.57
2019-04-16T08:57:48.292Z,15.77
2019-04-16T09:00:16.476Z,17.27
2019-04-16T09:02:44.440Z,15.40
2019-04-16T09:05:12.630Z,18.00
2019-04-16T09:07:40.604Z,17.00
2019-04-16T09:10:18.262Z,18.07
2019-04-16T09:12:46.103Z,19.60
2019-04-16T09:15:17.299Z,19.03
2019-04-16T09:17:48.557Z,17.20
2019-04-16T09:20:24.083Z,20.23
2019-04-16T09:22:53.645Z,18.20
2019-04-16T09:25:37.948Z,18.07
2019-04-16T09:28:25.913Z,21.50
2019-04-16T09:31:06.558Z,17.53
2019-04-16T09:33:46.697Z,19.23
2019-04-16T09:36:32.554Z,16.87
2019-04-16T09:39:15.932Z,16.87
2019-04-16T09:41:46.827Z,17.50
2019-04-16T09:44:15.041Z,14.50
2019-04-16T09:46:51.943Z,18.13
2019-04-16T09:49:12.829Z,19.40
2019-04-16T09:51:40.882Z,19.30
2019-04-16T09:54:12.675Z,17.13
2019-04-16T09:56:38.971Z,15.87
2019-04-16T09:59:17.113Z,18.13
2019-04-16T10:01:47.880Z,15.63
2019-04-16T10:04:17.873Z,20.83
2019-04-16T10:06:45.906Z,18.20
2019-04-16T10:09:17.038Z,20.47
2019-04-16T10:11:43.709Z,20.03
2019-04-16T10:14:11.877Z,20.00
2019-04-16T10:16:40.140Z,20.53
2019-04-16T10:19:09.106Z,20.13
2019-04-16T10:21:37.429Z,20.93
2019-04-16T10:24:23.273Z,17.93
2019-04-16T10:26:56.936Z,18.03
2019-04-16T10:29:24.276Z,20.20
2019-04-16T10:31:52.980Z,19.90
2019-04-16T10:34:21.021Z,20.93
2019-04-16T10:36:49.043Z,17.50
2019-04-16T10:39:25.307Z,17.77
2019-04-16T10:41:58.483Z,18.43
2019-04-16T10:44:35.931Z,18.83
2019-04-16T10:47:22.565Z,18.63
2019-04-16T10:50:05.828Z,19.60
2019-04-16T10:52:55.428Z,17.57
2019-04-16T10:55:58.441Z,18.07
2019-04-16T10:58:51.504Z,20.50
2019-04-16T11:01:34.786Z,21.87
2019-04-16T11:04:15.589Z,17.90
2019-04-16T11:06:45.922Z,15.43
2019-04-16T11:09:13.997Z,18.57
2019-04-16T11:11:42.057Z,19.77
2019-04-16T11:14:11.583Z,20.43
2019-04-16T11:16:41.179Z,20.00
2019-04-16T11:19:09.393Z,16.00
2019-04-16T11:21:37.415Z,19.57
2019-04-16T11:24:05.657Z,18.27
2019-04-16T11:26:34.147Z,20.50
2019-04-16T11:29:02.247Z,19.33
2019-04-16T11:31:30.592Z,16.03
2019-04-16T11:33:59.114Z,19.57
2019-04-16T11:36:30.568Z,14.20
2019-04-16T11:38:57.222Z,17.70
2019-04-16T11:41:25.183Z,15.57
2019-04-16T11:43:53.221Z,16.13
2019-04-16T11:46:21.614Z,16.10
2019-04-16T11:48:50.350Z,17.60
2019-04-16T11:51:18.699Z,16.23
2019-04-16T11:53:47.381Z,14.70
2019-04-16T11:56:15.541Z,15.70
2019-04-16T11:58:45.343Z,15.30
2019-04-16T12:01:28.145Z,13.77
2019-04-16T12:04:00.160Z,15.10
2019-04-16T12:07:05.570Z,16.30
2019-04-16T12:09:51.979Z,14.83
2019-04-16T12:12:42.178Z,16.00
2019-04-16T12:15:28.240Z,13.43
2019-04-16T12:18:06.428Z,14.17
2019-04-16T12:20:46.813Z,12.87
2019-04-16T12:23:35.804Z,12.93
2019-04-16T12:26:29.647Z,13.60
2019-04-16T12:29:03.487Z,16.60
2019-04-16T12:32:05.756Z,14.77
2019-04-16T12:34:42.141Z,14.07
2019-04-16T12:37:23.872Z,12.90
2019-04-16T12:40:03.830Z,12.60
2019-04-16T12:42:42.264Z,13.17
2019-04-16T12:45:34.326Z,14.20
2019-04-16T12:48:21.625Z,14.83
2019-04-16T12:51:02.599Z,13.37
2019-04-16T12:54:04.799Z,13.90
2019-04-16T12:57:06.813Z,12.77
2019-04-16T12:59:56.788Z,11.67
2019-04-16T13:02:46.883Z,10.97
2019-04-16T13:05:44.426Z,11.33
2019-04-16T13:08:32.281Z,13.30
2019-04-16T13:11:31.988Z,12.40
2019-04-16T13:14:29.635Z,13.03
2019-04-16T13:17:04.505Z,14.07
2019-04-16T13:19:42.230Z,14.07
2019-04-16T13:22:11.336Z,12.03
2019-04-16T13:24:43.069Z,13.13
2019-04-16T13:27:16.662Z,13.10
2019-04-16T13:29:44.733Z,14.13
2019-04-16T13:32:12.984Z,12.27
2019-04-16T13:34:41.024Z,13.73
2019-04-16T13:37:09.360Z,13.30
2019-04-16T13:39:59.476Z,13.70
2019-04-16T13:42:26.643Z,14.57
2019-04-16T13:45:27.255Z,13.50
2019-04-16T13:47:56.252Z,13.47
2019-04-16T13:50:28.453Z,12.10
2019-04-16T13:53:13.962Z,12.80
2019-04-16T13:56:17.696Z,13.33
2019-04-16T13:58:50.643Z,12.70
2019-04-16T14:01:24.826Z,13.77
2019-04-16T14:03:56.087Z,13.90
2019-04-16T14:06:23.450Z,12.73
2019-04-16T14:08:51.496Z,11.83
2019-04-16T14:11:20.554Z,13.73
2019-04-16T14:13:50.281Z,14.50
2019-04-16T14:16:18.486Z,16.47
2019-04-16T14:18:46.755Z,14.60
2019-04-16T14:21:14.773Z,14.00
2019-04-16T14:23:42.716Z,13.80
2019-04-16T14:26:10.773Z,15.73
2019-04-16T14:28:51.303Z,14.77
2019-04-16T14:31:08.847Z,14.87
2019-04-16T14:34:01.709Z,13.97
2019-04-16T14:36:29.906Z,14.77
2019-04-16T14:39:04.075Z,15.43
2019-04-16T14:41:30.941Z,14.80
2019-04-16T14:44:06.703Z,14.83
2019-04-16T14:46:35.380Z,14.90
2019-04-16T14:49:03.420Z,14.20
2019-04-16T14:51:32.453Z,13.20
2019-04-16T14:54:06.929Z,12.87
2019-04-16T14:56:43.550Z,15.27
2019-04-16T14:59:29.931Z,14.00
2019-04-16T15:02:05.370Z,12.77
2019-04-16T15:04:58.383Z,14.10
2019-04-16T15:07:38.971Z,15.23
2019-04-16T15:10:33.812Z,14.10
2019-04-16T15:13:20.832Z,15.20
2019-04-16T15:16:14.667Z,14.03
2019-04-16T15:19:05.600Z,13.17
2019-04-16T15:21:52.619Z,11.17
2019-04-16T15:24:40.961Z,13.60
2019-04-16T15:27:20.597Z,13.77
2019-04-16T15:30:13.808Z,13.23
2019-04-16T15:32:59.684Z,13.37
2019-04-16T15:35:37.522Z,13.93
2019-04-16T15:38:29.565Z,13.40
2019-04-16T15:41:13.070Z,12.37
2019-04-16T15:43:59.082Z,11.07
2019-04-16T15:46:58.678Z,9.30
2019-04-16T15:49:38.261Z,10.50
2019-04-16T15:52:28.156Z,9.97
2019-04-16T15:55:08.632Z,9.00
2019-04-16T15:58:07.820Z,9.00
2019-04-16T16:00:52.606Z,7.50
2019-04-16T16:03:38.575Z,6.57
2019-04-16T16:06:11.661Z,6.67
2019-04-16T16:08:58.870Z,7.77
2019-04-16T16:11:33.669Z,7.17
2019-04-16T16:14:01.868Z,7.10
2019-04-16T16:16:41.487Z,7.13
2019-04-16T16:18:59.880Z,6.67
2019-04-16T16:21:27.968Z,6.87
2019-04-16T16:23:56.232Z,6.63
2019-04-16T16:26:24.326Z,6.60
2019-04-16T16:28:52.677Z,7.00
2019-04-16T16:31:21.285Z,6.17
2019-04-16T16:33:49.521Z,6.53
2019-04-16T16:36:17.615Z,5.60
2019-04-16T16:38:48.540Z,5.30
2019-04-16T16:41:15.409Z,5.87
2019-04-16T16:43:43.591Z,5.50
2019-04-16T16:46:31.737Z,5.70
2019-04-16T16:48:59.901Z,4.97
2019-04-16T16:51:28.036Z,5.17
2019-04-16T16:54:22.941Z,4.63
2019-04-16T16:57:03.549Z,4.90
2019-04-16T16:59:34.622Z,4.90
2019-04-16T17:02:15.846Z,4.53
2019-04-16T17:04:46.195Z,4.27
2019-04-16T17:07:17.531Z,6.40
2019-04-16T17:09:44.075Z,5.50
2019-04-16T17:12:12.639Z,5.00
2019-04-16T17:14:40.991Z,5.20
2019-04-16T17:17:15.108Z,5.20
2019-04-16T17:19:39.998Z,4.23
2019-04-16T17:22:08.737Z,4.80
2019-04-16T17:24:37.023Z,5.30
2019-04-16T17:27:05.746Z,4.90
2019-04-16T17:29:34.622Z,5.07
2019-04-16T17:32:03.059Z,4.40
2019-04-16T17:34:31.051Z,4.50
2019-04-16T17:36:59.011Z,3.80
2019-04-16T17:42:20.065Z,4.27
2019-04-16T17:45:13.198Z,4.87
2019-04-16T17:48:09.447Z,4.87
2019-04-16T17:50:51.360Z,6.50
2019-04-16T17:53:26.587Z,5.10
2019-04-16T17:56:14.821Z,6.00
2019-04-16T17:58:52.020Z,4.60
2019-04-16T18:01:44.749Z,4.90
2019-04-16T18:04:31.782Z,8.80
2019-04-16T18:07:37.931Z,5.77
2019-04-16T18:10:28.162Z,7.77
2019-04-16T18:13:02.071Z,5.73
2019-04-16T18:15:52.343Z,5.87
2019-04-16T18:18:37.717Z,5.70
2019-04-16T18:21:27.605Z,5.77
2019-04-16T18:24:13.163Z,5.80
2019-04-16T18:27:00.279Z,6.77
2019-04-16T18:29:47.313Z,6.63
2019-04-16T18:32:46.372Z,6.20
2019-04-16T18:35:28.287Z,6.40
2019-04-16T18:41:22.343Z,6.90
2019-04-16T18:44:12.191Z,6.10
2019-04-16T18:46:54.702Z,6.30
2019-04-16T18:49:24.924Z,6.10
2019-04-16T18:51:52.807Z,6.30
2019-04-16T18:54:20.796Z,6.23
2019-04-16T18:56:48.776Z,6.20
2019-04-16T18:59:16.691Z,5.80
2019-04-16T19:01:45.550Z,5.80
2019-04-16T19:04:13.557Z,6.37
2019-04-16T19:06:41.614Z,8.53
2019-04-16T19:09:09.609Z,6.03
2019-04-16T19:11:37.578Z,6.30
2019-04-16T19:14:05.600Z,6.60
2019-04-16T19:16:33.543Z,6.57
2019-04-16T19:19:01.551Z,6.37
2019-04-16T19:21:29.566Z,6.67
2019-04-16T19:23:57.607Z,5.90
2019-04-16T19:26:25.621Z,6.00
2019-04-16T19:28:53.560Z,6.03
2019-04-16T19:31:23.138Z,5.83
2019-04-16T19:33:51.261Z,5.80
2019-04-16T19:36:19.778Z,6.37
2019-04-16T19:38:48.853Z,6.73
2019-04-16T19:41:16.903Z,7.07
2019-04-16T19:43:45.342Z,6.60
2019-04-16T19:46:20.883Z,6.23
2019-04-16T19:48:48.864Z,7.33
2019-04-16T19:51:19.602Z,7.10
2019-04-16T19:53:49.212Z,6.90
2019-04-16T19:56:18.532Z,6.30
2019-04-16T19:58:48.193Z,7.40
2019-04-16T20:01:16.895Z,7.27
2019-04-16T20:03:46.443Z,7.60
2019-04-16T20:06:17.316Z,6.83
2019-04-16T20:08:45.180Z,6.97
2019-04-16T20:11:13.692Z,7.50
2019-04-16T20:13:41.859Z,7.13
2019-04-16T20:16:12.741Z,6.40
2019-04-16T20:18:50.948Z,7.73
2019-04-16T20:21:11.095Z,7.10
2019-04-16T20:23:42.828Z,7.47
2019-04-16T20:26:13.631Z,7.60
2019-04-16T20:31:31.742Z,7.80
2019-04-16T20:34:04.077Z,8.90
2019-04-16T20:39:41.083Z,8.60
2019-04-16T20:42:09.010Z,7.43
2019-04-16T20:44:36.931Z,6.80
2019-04-16T20:47:08.249Z,7.23
2019-04-16T20:53:23.000Z,7.70
2019-04-16T20:55:50.894Z,6.43
2019-04-16T20:58:18.779Z,7.30
2019-04-16T21:00:48.537Z,6.67
2019-04-16T21:03:22.245Z,8.33
2019-04-16T21:05:57.859Z,7.50
2019-04-16T21:14:22.744Z,8.70
2019-04-16T21:16:50.647Z,7.60
2019-04-16T21:19:23.346Z,7.73
2019-04-16T21:22:08.555Z,7.53
2019-04-16T21:24:39.198Z,8.37
2019-04-16T21:30:19.273Z,8.30
2019-04-16T21:33:07.436Z,8.40
2019-04-16T21:35:56.199Z,7.93
2019-04-16T21:38:30.239Z,7.90
2019-04-16T21:41:01.335Z,8.97
2019-04-16T21:43:39.578Z,9.10
2019-04-16T21:46:09.184Z,8.40
2019-04-16T21:48:40.306Z,8.57
2019-04-16T21:51:08.241Z,8.50
2019-04-16T21:53:36.359Z,8.07
2019-04-16T21:56:07.857Z,8.10
2019-04-16T21:58:34.229Z,7.60
2019-04-16T22:01:16.511Z,7.27
2019-04-16T22:03:47.088Z,7.03
2019-04-16T22:06:19.913Z,8.47
2019-04-16T22:08:47.978Z,7.70
2019-04-16T22:11:16.045Z,8.03
2019-04-16T22:13:44.242Z,8.40
2019-04-16T22:16:12.148Z,9.10
2019-04-16T22:18:41.501Z,7.77
2019-04-16T22:21:11.883Z,8.47
2019-04-16T22:23:43.145Z,8.50
2019-04-16T22:26:15.473Z,7.37
2019-04-16T22:28:45.091Z,6.93
2019-04-16T22:31:13.968Z,7.20
2019-04-16T22:33:45.169Z,7.03
2019-04-16T22:36:15.753Z,6.87
2019-04-16T22:38:46.883Z,7.37
2019-04-16T22:41:29.545Z,7.50
2019-04-16T22:44:28.655Z,8.47
2019-04-16T22:47:01.707Z,8.73
2019-04-16T22:49:29.664Z,8.03
2019-04-16T22:51:57.730Z,8.30
2019-04-16T22:54:25.763Z,8.23
2019-04-16T22:57:03.442Z,8.07
2019-04-16T22:59:31.443Z,8.80
2019-04-16T23:01:59.535Z,8.00
2019-04-16T23:04:27.508Z,9.77
2019-04-16T23:06:55.441Z,10.77
2019-04-16T23:09:25.007Z,10.47
2019-04-16T23:11:55.895Z,11.07
2019-04-16T23:14:22.721Z,10.90
2019-04-16T23:16:50.695Z,13.43
2019-04-16T23:19:20.507Z,12.10
2019-04-16T23:21:48.354Z,13.20
2019-04-16T23:24:16.238Z,13.03
2019-04-16T23:26:44.236Z,13.80
2019-04-16T23:29:15.595Z,14.33
2019-04-16T23:31:41.944Z,13.13
2019-04-16T23:34:09.915Z,14.00
2019-04-16T23:36:37.848Z,16.80
2019-04-16T23:39:06.642Z,15.17
2019-04-16T23:41:34.507Z,15.13
2019-04-16T23:44:17.513Z,14.00
2019-04-16T23:47:11.922Z,14.87
2019-04-16T23:50:05.083Z,14.77
2019-04-16T23:52:38.189Z,16.13
2019-04-16T23:55:30.853Z,15.67
2019-04-16T23:58:11.946Z,16.90
